sensor_id;sensor_type;location;lat;lon;timestamp;P1;durP1;ratioP1;P2;durP2;ratioP2
61356;SDS011;47227;46.752;23.576;2024-02-28T00:02:07;16.70;;;8.70;;
61356;SDS011;47227;46.752;23.576;2024-02-28T00:04:36;20.50;;;11.20;;
61356;SDS011;47227;46.752;23.576;2024-02-28T00:07:04;26.20;;;16.90;;
61356;SDS011;47227;46.752;23.576;2024-02-28T00:09:33;32.70;;;16.70;;
61356;SDS011;47227;46.752;23.576;2024-02-28T00:12:01;30.90;;;16.70;;
61356;SDS011;47227;46.752;23.576;2024-02-28T00:14:30;32.00;;;16.80;;
61356;SDS011;47227;46.752;23.576;2024-02-28T00:16:58;34.10;;;19.10;;
61356;SDS011;47227;46.752;23.576;2024-02-28T00:19:27;38.20;;;19.30;;
61356;SDS011;47227;46.752;23.576;2024-02-28T00:21:55;33.90;;;18.70;;
61356;SDS011;47227;46.752;23.576;2024-02-28T00:24:24;31.50;;;16.80;;
61356;SDS011;47227;46.752;23.576;2024-02-28T00:26:52;36.80;;;18.30;;
61356;SDS011;47227;46.752;23.576;2024-02-28T00:29:21;34.30;;;18.20;;
61356;SDS011;47227;46.752;23.576;2024-02-28T00:31:50;35.60;;;18.20;;
61356;SDS011;47227;46.752;23.576;2024-02-28T00:34:18;34.40;;;18.40;;
61356;SDS011;47227;46.752;23.576;2024-02-28T00:36:46;32.80;;;16.50;;
61356;SDS011;47227;46.752;23.576;2024-02-28T00:39:23;26.60;;;15.40;;
61356;SDS011;47227;46.752;23.576;2024-02-28T00:41:51;28.60;;;15.60;;
61356;SDS011;47227;46.752;23.576;2024-02-28T00:44:20;26.10;;;15.90;;
61356;SDS011;47227;46.752;23.576;2024-02-28T00:46:49;28.10;;;15.10;;
61356;SDS011;47227;46.752;23.576;2024-02-28T00:49:17;30.30;;;15.50;;
61356;SDS011;47227;46.752;23.576;2024-02-28T00:51:46;28.00;;;15.30;;
61356;SDS011;47227;46.752;23.576;2024-02-28T00:54:15;22.80;;;13.10;;
61356;SDS011;47227;46.752;23.576;2024-02-28T00:56:43;24.10;;;12.80;;
61356;SDS011;47227;46.752;23.576;2024-02-28T00:59:11;21.60;;;11.70;;
61356;SDS011;47227;46.752;23.576;2024-02-28T01:01:41;21.10;;;11.10;;
61356;SDS011;47227;46.752;23.576;2024-02-28T01:04:10;17.30;;;11.50;;
61356;SDS011;47227;46.752;23.576;2024-02-28T01:06:38;21.60;;;11.60;;
61356;SDS011;47227;46.752;23.576;2024-02-28T01:09:07;20.50;;;11.30;;
61356;SDS011;47227;46.752;23.576;2024-02-28T01:11:38;20.10;;;11.80;;
61356;SDS011;47227;46.752;23.576;2024-02-28T01:14:06;22.10;;;10.80;;
61356;SDS011;47227;46.752;23.576;2024-02-28T01:16:35;16.70;;;11.20;;
61356;SDS011;47227;46.752;23.576;2024-02-28T01:19:03;17.70;;;11.00;;
61356;SDS011;47227;46.752;23.576;2024-02-28T01:21:31;15.40;;;9.80;;
61356;SDS011;47227;46.752;23.576;2024-02-28T01:24:01;16.10;;;8.60;;
61356;SDS011;47227;46.752;23.576;2024-02-28T01:26:29;12.70;;;8.40;;
61356;SDS011;47227;46.752;23.576;2024-02-28T01:28:57;15.90;;;9.80;;
61356;SDS011;47227;46.752;23.576;2024-02-28T01:31:26;16.30;;;8.40;;
61356;SDS011;47227;46.752;23.576;2024-02-28T01:33:55;17.10;;;9.50;;
61356;SDS011;47227;46.752;23.576;2024-02-28T01:36:24;20.00;;;9.20;;
61356;SDS011;47227;46.752;23.576;2024-02-28T01:38:54;19.70;;;9.30;;
61356;SDS011;47227;46.752;23.576;2024-02-28T01:41:23;23.00;;;13.40;;
61356;SDS011;47227;46.752;23.576;2024-02-28T01:43:51;34.40;;;19.60;;
61356;SDS011;47227;46.752;23.576;2024-02-28T01:46:28;23.40;;;13.20;;
61356;SDS011;47227;46.752;23.576;2024-02-28T01:48:57;22.10;;;14.00;;
61356;SDS011;47227;46.752;23.576;2024-02-28T01:51:26;29.70;;;16.60;;
61356;SDS011;47227;46.752;23.576;2024-02-28T01:53:56;32.00;;;17.60;;
61356;SDS011;47227;46.752;23.576;2024-02-28T01:56:25;28.00;;;17.40;;
61356;SDS011;47227;46.752;23.576;2024-02-28T01:58:54;25.20;;;13.30;;
61356;SDS011;47227;46.752;23.576;2024-02-28T02:01:25;24.10;;;13.50;;
61356;SDS011;47227;46.752;23.576;2024-02-28T02:03:54;17.40;;;11.00;;
61356;SDS011;47227;46.752;23.576;2024-02-28T02:06:23;25.50;;;14.30;;
61356;SDS011;47227;46.752;23.576;2024-02-28T02:08:52;19.30;;;12.40;;
61356;SDS011;47227;46.752;23.576;2024-02-28T02:11:20;16.20;;;10.40;;
61356;SDS011;47227;46.752;23.576;2024-02-28T02:13:50;15.00;;;9.30;;
61356;SDS011;47227;46.752;23.576;2024-02-28T02:16:20;13.90;;;9.80;;
61356;SDS011;47227;46.752;23.576;2024-02-28T02:18:54;14.30;;;8.90;;
61356;SDS011;47227;46.752;23.576;2024-02-28T02:21:24;17.00;;;9.80;;
61356;SDS011;47227;46.752;23.576;2024-02-28T02:24:02;17.00;;;10.00;;
61356;SDS011;47227;46.752;23.576;2024-02-28T02:26:31;16.50;;;10.10;;
61356;SDS011;47227;46.752;23.576;2024-02-28T02:28:59;17.60;;;11.00;;
61356;SDS011;47227;46.752;23.576;2024-02-28T02:31:29;15.60;;;10.30;;
61356;SDS011;47227;46.752;23.576;2024-02-28T02:33:58;17.30;;;10.40;;
61356;SDS011;47227;46.752;23.576;2024-02-28T02:36:26;16.10;;;10.60;;
61356;SDS011;47227;46.752;23.576;2024-02-28T02:38:55;15.20;;;10.20;;
61356;SDS011;47227;46.752;23.576;2024-02-28T02:41:24;18.50;;;9.90;;
61356;SDS011;47227;46.752;23.576;2024-02-28T02:43:52;14.20;;;10.00;;
61356;SDS011;47227;46.752;23.576;2024-02-28T02:46:20;27.20;;;11.80;;
61356;SDS011;47227;46.752;23.576;2024-02-28T02:48:49;16.90;;;11.70;;
61356;SDS011;47227;46.752;23.576;2024-02-28T02:51:18;18.00;;;11.00;;
61356;SDS011;47227;46.752;23.576;2024-02-28T02:53:47;18.40;;;10.70;;
61356;SDS011;47227;46.752;23.576;2024-02-28T02:56:15;20.40;;;11.20;;
61356;SDS011;47227;46.752;23.576;2024-02-28T02:58:44;22.40;;;11.70;;
61356;SDS011;47227;46.752;23.576;2024-02-28T03:01:12;18.40;;;12.10;;
61356;SDS011;47227;46.752;23.576;2024-02-28T03:03:41;21.70;;;12.50;;
61356;SDS011;47227;46.752;23.576;2024-02-28T03:06:10;20.20;;;12.00;;
61356;SDS011;47227;46.752;23.576;2024-02-28T03:08:38;22.10;;;11.80;;
61356;SDS011;47227;46.752;23.576;2024-02-28T03:11:07;20.70;;;12.20;;
61356;SDS011;47227;46.752;23.576;2024-02-28T03:13:36;21.10;;;12.10;;
61356;SDS011;47227;46.752;23.576;2024-02-28T03:16:05;25.20;;;13.10;;
61356;SDS011;47227;46.752;23.576;2024-02-28T03:18:34;24.00;;;12.90;;
61356;SDS011;47227;46.752;23.576;2024-02-28T03:21:02;24.30;;;12.90;;
61356;SDS011;47227;46.752;23.576;2024-02-28T03:23:32;22.70;;;12.20;;
61356;SDS011;47227;46.752;23.576;2024-02-28T03:26:01;23.70;;;13.10;;
61356;SDS011;47227;46.752;23.576;2024-02-28T03:28:29;21.40;;;12.70;;
61356;SDS011;47227;46.752;23.576;2024-02-28T03:30:58;28.80;;;12.80;;
61356;SDS011;47227;46.752;23.576;2024-02-28T03:33:26;23.30;;;11.60;;
61356;SDS011;47227;46.752;23.576;2024-02-28T03:35:54;16.70;;;10.60;;
61356;SDS011;47227;46.752;23.576;2024-02-28T03:38:23;18.00;;;11.10;;
61356;SDS011;47227;46.752;23.576;2024-02-28T03:40:51;18.60;;;12.60;;
61356;SDS011;47227;46.752;23.576;2024-02-28T03:43:19;26.80;;;13.50;;
61356;SDS011;47227;46.752;23.576;2024-02-28T03:45:48;23.30;;;11.70;;
61356;SDS011;47227;46.752;23.576;2024-02-28T03:48:17;18.00;;;11.50;;
61356;SDS011;47227;46.752;23.576;2024-02-28T03:50:45;21.30;;;11.20;;
61356;SDS011;47227;46.752;23.576;2024-02-28T03:53:14;16.10;;;11.40;;
61356;SDS011;47227;46.752;23.576;2024-02-28T03:55:43;25.80;;;12.80;;
61356;SDS011;47227;46.752;23.576;2024-02-28T03:58:14;26.40;;;13.50;;
61356;SDS011;47227;46.752;23.576;2024-02-28T04:00:42;23.20;;;13.30;;
61356;SDS011;47227;46.752;23.576;2024-02-28T04:03:12;25.00;;;13.30;;
61356;SDS011;47227;46.752;23.576;2024-02-28T04:05:42;21.70;;;12.50;;
61356;SDS011;47227;46.752;23.576;2024-02-28T04:08:10;25.10;;;11.50;;
61356;SDS011;47227;46.752;23.576;2024-02-28T04:10:39;18.10;;;11.10;;
61356;SDS011;47227;46.752;23.576;2024-02-28T04:13:08;16.70;;;11.20;;
61356;SDS011;47227;46.752;23.576;2024-02-28T04:15:37;16.40;;;10.20;;
61356;SDS011;47227;46.752;23.576;2024-02-28T04:18:06;17.80;;;10.80;;
61356;SDS011;47227;46.752;23.576;2024-02-28T04:20:34;16.10;;;10.00;;
61356;SDS011;47227;46.752;23.576;2024-02-28T04:23:03;18.20;;;10.80;;
61356;SDS011;47227;46.752;23.576;2024-02-28T04:25:32;17.00;;;11.60;;
61356;SDS011;47227;46.752;23.576;2024-02-28T04:28:00;18.30;;;11.90;;
61356;SDS011;47227;46.752;23.576;2024-02-28T04:30:28;17.20;;;11.70;;
61356;SDS011;47227;46.752;23.576;2024-02-28T04:32:57;21.10;;;11.80;;
61356;SDS011;47227;46.752;23.576;2024-02-28T04:35:25;21.30;;;11.50;;
61356;SDS011;47227;46.752;23.576;2024-02-28T04:37:54;18.50;;;12.40;;
61356;SDS011;47227;46.752;23.576;2024-02-28T04:40:22;29.10;;;12.30;;
61356;SDS011;47227;46.752;23.576;2024-02-28T04:42:51;23.20;;;12.30;;
61356;SDS011;47227;46.752;23.576;2024-02-28T04:45:19;24.30;;;13.00;;
61356;SDS011;47227;46.752;23.576;2024-02-28T04:47:48;26.30;;;12.90;;
61356;SDS011;47227;46.752;23.576;2024-02-28T04:50:18;30.10;;;14.20;;
61356;SDS011;47227;46.752;23.576;2024-02-28T04:52:47;26.50;;;14.30;;
61356;SDS011;47227;46.752;23.576;2024-02-28T04:55:15;37.60;;;15.20;;
61356;SDS011;47227;46.752;23.576;2024-02-28T04:57:44;34.90;;;16.10;;
61356;SDS011;47227;46.752;23.576;2024-02-28T05:00:13;36.90;;;18.00;;
61356;SDS011;47227;46.752;23.576;2024-02-28T05:02:42;36.50;;;19.40;;
61356;SDS011;47227;46.752;23.576;2024-02-28T05:05:10;37.30;;;19.40;;
61356;SDS011;47227;46.752;23.576;2024-02-28T05:07:38;38.60;;;19.50;;
61356;SDS011;47227;46.752;23.576;2024-02-28T05:10:07;36.20;;;19.40;;
61356;SDS011;47227;46.752;23.576;2024-02-28T05:12:36;34.80;;;19.60;;
61356;SDS011;47227;46.752;23.576;2024-02-28T05:15:05;40.80;;;19.00;;
61356;SDS011;47227;46.752;23.576;2024-02-28T05:17:34;35.40;;;18.40;;
61356;SDS011;47227;46.752;23.576;2024-02-28T05:20:03;37.30;;;17.80;;
61356;SDS011;47227;46.752;23.576;2024-02-28T05:22:32;34.50;;;18.20;;
61356;SDS011;47227;46.752;23.576;2024-02-28T05:25:00;41.70;;;19.50;;
61356;SDS011;47227;46.752;23.576;2024-02-28T05:27:29;49.00;;;19.90;;
61356;SDS011;47227;46.752;23.576;2024-02-28T05:29:58;35.50;;;19.00;;
61356;SDS011;47227;46.752;23.576;2024-02-28T05:32:29;33.70;;;18.80;;
61356;SDS011;47227;46.752;23.576;2024-02-28T05:34:57;42.40;;;22.50;;
61356;SDS011;47227;46.752;23.576;2024-02-28T05:37:26;38.50;;;19.40;;
61356;SDS011;47227;46.752;23.576;2024-02-28T05:39:55;37.00;;;19.30;;
61356;SDS011;47227;46.752;23.576;2024-02-28T05:42:23;32.30;;;18.40;;
61356;SDS011;47227;46.752;23.576;2024-02-28T05:44:52;33.90;;;17.70;;
61356;SDS011;47227;46.752;23.576;2024-02-28T05:47:20;31.60;;;19.10;;
61356;SDS011;47227;46.752;23.576;2024-02-28T05:49:52;40.60;;;20.60;;
61356;SDS011;47227;46.752;23.576;2024-02-28T05:52:20;38.40;;;19.00;;
61356;SDS011;47227;46.752;23.576;2024-02-28T05:54:49;41.80;;;21.00;;
61356;SDS011;47227;46.752;23.576;2024-02-28T05:57:17;37.40;;;20.40;;
61356;SDS011;47227;46.752;23.576;2024-02-28T05:59:46;34.30;;;19.70;;
61356;SDS011;47227;46.752;23.576;2024-02-28T06:02:14;36.10;;;20.10;;
61356;SDS011;47227;46.752;23.576;2024-02-28T06:04:42;38.20;;;20.50;;
61356;SDS011;47227;46.752;23.576;2024-02-28T06:07:11;33.80;;;20.30;;
61356;SDS011;47227;46.752;23.576;2024-02-28T06:09:39;34.30;;;19.90;;
61356;SDS011;47227;46.752;23.576;2024-02-28T06:12:08;39.20;;;20.20;;
61356;SDS011;47227;46.752;23.576;2024-02-28T06:14:37;38.00;;;20.70;;
61356;SDS011;47227;46.752;23.576;2024-02-28T06:17:05;42.30;;;21.20;;
61356;SDS011;47227;46.752;23.576;2024-02-28T06:19:34;37.70;;;21.40;;
61356;SDS011;47227;46.752;23.576;2024-02-28T06:22:02;41.80;;;22.40;;
61356;SDS011;47227;46.752;23.576;2024-02-28T06:24:33;40.50;;;22.50;;
61356;SDS011;47227;46.752;23.576;2024-02-28T06:27:02;41.10;;;22.10;;
61356;SDS011;47227;46.752;23.576;2024-02-28T06:29:30;46.50;;;22.70;;
61356;SDS011;47227;46.752;23.576;2024-02-28T06:31:59;42.40;;;22.00;;
61356;SDS011;47227;46.752;23.576;2024-02-28T06:34:28;44.80;;;21.50;;
61356;SDS011;47227;46.752;23.576;2024-02-28T06:36:57;41.40;;;21.50;;
61356;SDS011;47227;46.752;23.576;2024-02-28T06:39:25;40.80;;;22.50;;
61356;SDS011;47227;46.752;23.576;2024-02-28T06:41:54;38.90;;;21.50;;
61356;SDS011;47227;46.752;23.576;2024-02-28T06:44:22;38.60;;;21.70;;
61356;SDS011;47227;46.752;23.576;2024-02-28T06:46:51;36.00;;;20.50;;
61356;SDS011;47227;46.752;23.576;2024-02-28T06:49:19;44.10;;;21.60;;
61356;SDS011;47227;46.752;23.576;2024-02-28T06:51:48;39.70;;;20.10;;
61356;SDS011;47227;46.752;23.576;2024-02-28T06:54:17;37.00;;;21.50;;
61356;SDS011;47227;46.752;23.576;2024-02-28T06:56:45;44.10;;;21.80;;
61356;SDS011;47227;46.752;23.576;2024-02-28T06:59:14;38.80;;;21.00;;
61356;SDS011;47227;46.752;23.576;2024-02-28T07:01:42;40.80;;;23.20;;
61356;SDS011;47227;46.752;23.576;2024-02-28T07:04:11;48.50;;;24.20;;
61356;SDS011;47227;46.752;23.576;2024-02-28T07:06:39;46.60;;;24.80;;
61356;SDS011;47227;46.752;23.576;2024-02-28T07:09:08;47.70;;;24.50;;
61356;SDS011;47227;46.752;23.576;2024-02-28T07:11:37;49.30;;;24.80;;
61356;SDS011;47227;46.752;23.576;2024-02-28T07:14:07;45.30;;;24.30;;
61356;SDS011;47227;46.752;23.576;2024-02-28T07:16:35;57.10;;;29.20;;
61356;SDS011;47227;46.752;23.576;2024-02-28T07:19:04;56.50;;;28.40;;
61356;SDS011;47227;46.752;23.576;2024-02-28T07:21:33;54.30;;;30.80;;
61356;SDS011;47227;46.752;23.576;2024-02-28T07:24:01;46.90;;;25.70;;
61356;SDS011;47227;46.752;23.576;2024-02-28T07:26:30;36.40;;;21.20;;
61356;SDS011;47227;46.752;23.576;2024-02-28T07:28:59;41.30;;;24.60;;
61356;SDS011;47227;46.752;23.576;2024-02-28T07:31:27;44.80;;;24.90;;
61356;SDS011;47227;46.752;23.576;2024-02-28T07:33:56;38.40;;;22.40;;
61356;SDS011;47227;46.752;23.576;2024-02-28T07:36:24;36.50;;;20.00;;
61356;SDS011;47227;46.752;23.576;2024-02-28T07:38:53;33.60;;;20.40;;
61356;SDS011;47227;46.752;23.576;2024-02-28T07:41:21;30.30;;;19.90;;
61356;SDS011;47227;46.752;23.576;2024-02-28T07:43:49;32.70;;;20.50;;
61356;SDS011;47227;46.752;23.576;2024-02-28T07:46:18;39.40;;;22.20;;
61356;SDS011;47227;46.752;23.576;2024-02-28T07:48:46;36.20;;;20.40;;
61356;SDS011;47227;46.752;23.576;2024-02-28T07:51:15;32.30;;;20.80;;
61356;SDS011;47227;46.752;23.576;2024-02-28T07:53:45;40.70;;;20.80;;
61356;SDS011;47227;46.752;23.576;2024-02-28T07:56:18;36.60;;;21.90;;
61356;SDS011;47227;46.752;23.576;2024-02-28T07:58:47;37.40;;;20.40;;
61356;SDS011;47227;46.752;23.576;2024-02-28T08:01:15;38.40;;;19.90;;
61356;SDS011;47227;46.752;23.576;2024-02-28T08:03:45;38.00;;;20.60;;
61356;SDS011;47227;46.752;23.576;2024-02-28T08:06:14;38.70;;;20.30;;
61356;SDS011;47227;46.752;23.576;2024-02-28T08:08:44;44.00;;;23.80;;
61356;SDS011;47227;46.752;23.576;2024-02-28T08:11:14;39.90;;;23.10;;
61356;SDS011;47227;46.752;23.576;2024-02-28T08:13:43;39.40;;;21.30;;
61356;SDS011;47227;46.752;23.576;2024-02-28T08:16:11;36.20;;;20.70;;
61356;SDS011;47227;46.752;23.576;2024-02-28T08:18:40;38.60;;;21.70;;
61356;SDS011;47227;46.752;23.576;2024-02-28T08:21:09;37.60;;;21.10;;
61356;SDS011;47227;46.752;23.576;2024-02-28T08:23:37;38.90;;;19.90;;
61356;SDS011;47227;46.752;23.576;2024-02-28T08:26:06;37.30;;;21.80;;
61356;SDS011;47227;46.752;23.576;2024-02-28T08:28:35;43.10;;;23.20;;
61356;SDS011;47227;46.752;23.576;2024-02-28T08:31:03;37.50;;;22.40;;
61356;SDS011;47227;46.752;23.576;2024-02-28T08:33:32;39.80;;;21.10;;
61356;SDS011;47227;46.752;23.576;2024-02-28T08:36:00;38.40;;;20.10;;
61356;SDS011;47227;46.752;23.576;2024-02-28T08:38:29;38.20;;;19.20;;
61356;SDS011;47227;46.752;23.576;2024-02-28T08:40:58;31.40;;;19.00;;
61356;SDS011;47227;46.752;23.576;2024-02-28T08:43:26;41.10;;;19.70;;
61356;SDS011;47227;46.752;23.576;2024-02-28T08:45:55;33.80;;;18.10;;
61356;SDS011;47227;46.752;23.576;2024-02-28T08:48:23;34.90;;;20.40;;
61356;SDS011;47227;46.752;23.576;2024-02-28T08:50:51;35.90;;;19.40;;
61356;SDS011;47227;46.752;23.576;2024-02-28T08:53:20;33.60;;;19.70;;
61356;SDS011;47227;46.752;23.576;2024-02-28T08:55:48;37.00;;;21.30;;
61356;SDS011;47227;46.752;23.576;2024-02-28T08:58:17;31.40;;;19.90;;
61356;SDS011;47227;46.752;23.576;2024-02-28T09:00:45;32.30;;;19.80;;
61356;SDS011;47227;46.752;23.576;2024-02-28T09:03:14;27.70;;;19.20;;
61356;SDS011;47227;46.752;23.576;2024-02-28T09:05:43;37.00;;;20.30;;
61356;SDS011;47227;46.752;23.576;2024-02-28T09:08:11;29.40;;;18.90;;
61356;SDS011;47227;46.752;23.576;2024-02-28T09:10:41;37.10;;;19.20;;
61356;SDS011;47227;46.752;23.576;2024-02-28T09:13:10;32.80;;;20.20;;
61356;SDS011;47227;46.752;23.576;2024-02-28T09:15:40;33.80;;;19.30;;
61356;SDS011;47227;46.752;23.576;2024-02-28T09:18:09;30.30;;;19.20;;
61356;SDS011;47227;46.752;23.576;2024-02-28T09:20:37;36.60;;;18.80;;
61356;SDS011;47227;46.752;23.576;2024-02-28T09:23:06;32.50;;;19.50;;
61356;SDS011;47227;46.752;23.576;2024-02-28T09:25:35;41.60;;;20.60;;
61356;SDS011;47227;46.752;23.576;2024-02-28T09:28:03;34.10;;;20.50;;
61356;SDS011;47227;46.752;23.576;2024-02-28T09:30:32;39.50;;;20.80;;
61356;SDS011;47227;46.752;23.576;2024-02-28T09:33:12;32.10;;;20.50;;
61356;SDS011;47227;46.752;23.576;2024-02-28T09:35:41;33.00;;;19.90;;
61356;SDS011;47227;46.752;23.576;2024-02-28T09:38:10;34.10;;;20.10;;
61356;SDS011;47227;46.752;23.576;2024-02-28T09:40:39;33.00;;;20.80;;
61356;SDS011;47227;46.752;23.576;2024-02-28T09:43:11;33.00;;;20.10;;
61356;SDS011;47227;46.752;23.576;2024-02-28T09:45:47;37.00;;;21.90;;
61356;SDS011;47227;46.752;23.576;2024-02-28T09:48:16;32.00;;;20.40;;
61356;SDS011;47227;46.752;23.576;2024-02-28T09:50:46;32.80;;;20.10;;
61356;SDS011;47227;46.752;23.576;2024-02-28T09:53:15;34.30;;;20.70;;
61356;SDS011;47227;46.752;23.576;2024-02-28T09:55:43;35.30;;;21.20;;
61356;SDS011;47227;46.752;23.576;2024-02-28T09:58:12;32.80;;;20.60;;
61356;SDS011;47227;46.752;23.576;2024-02-28T10:00:41;39.60;;;21.70;;
61356;SDS011;47227;46.752;23.576;2024-02-28T10:03:13;35.60;;;21.30;;
61356;SDS011;47227;46.752;23.576;2024-02-28T10:05:43;46.50;;;20.10;;
61356;SDS011;47227;46.752;23.576;2024-02-28T10:08:13;34.80;;;23.10;;
61356;SDS011;47227;46.752;23.576;2024-02-28T10:10:45;34.50;;;24.00;;
61356;SDS011;47227;46.752;23.576;2024-02-28T10:13:16;35.20;;;20.60;;
61356;SDS011;47227;46.752;23.576;2024-02-28T10:15:45;29.70;;;19.30;;
61356;SDS011;47227;46.752;23.576;2024-02-28T10:18:13;33.60;;;19.00;;
61356;SDS011;47227;46.752;23.576;2024-02-28T10:20:42;41.10;;;19.40;;
61356;SDS011;47227;46.752;23.576;2024-02-28T10:23:10;40.10;;;18.20;;
61356;SDS011;47227;46.752;23.576;2024-02-28T10:25:45;35.80;;;18.50;;
61356;SDS011;47227;46.752;23.576;2024-02-28T10:28:25;25.80;;;17.60;;
61356;SDS011;47227;46.752;23.576;2024-02-28T10:30:53;26.80;;;16.00;;
61356;SDS011;47227;46.752;23.576;2024-02-28T10:33:25;36.50;;;16.50;;
61356;SDS011;47227;46.752;23.576;2024-02-28T10:35:57;37.00;;;15.10;;
61356;SDS011;47227;46.752;23.576;2024-02-28T10:38:26;32.90;;;15.10;;
61356;SDS011;47227;46.752;23.576;2024-02-28T10:40:55;24.30;;;14.00;;
61356;SDS011;47227;46.752;23.576;2024-02-28T10:43:26;24.20;;;13.90;;
61356;SDS011;47227;46.752;23.576;2024-02-28T10:45:57;25.30;;;12.70;;
61356;SDS011;47227;46.752;23.576;2024-02-28T10:48:32;24.60;;;12.30;;
61356;SDS011;47227;46.752;23.576;2024-02-28T10:51:01;17.10;;;10.80;;
61356;SDS011;47227;46.752;23.576;2024-02-28T10:53:37;21.80;;;10.80;;
61356;SDS011;47227;46.752;23.576;2024-02-28T10:56:11;24.00;;;11.10;;
61356;SDS011;47227;46.752;23.576;2024-02-28T10:58:43;15.90;;;9.70;;
61356;SDS011;47227;46.752;23.576;2024-02-28T11:01:19;13.30;;;9.20;;
61356;SDS011;47227;46.752;23.576;2024-02-28T11:03:50;27.50;;;9.40;;
61356;SDS011;47227;46.752;23.576;2024-02-28T11:06:20;23.00;;;8.20;;
61356;SDS011;47227;46.752;23.576;2024-02-28T11:08:51;11.80;;;8.00;;
61356;SDS011;47227;46.752;23.576;2024-02-28T11:11:24;28.40;;;8.70;;
61356;SDS011;47227;46.752;23.576;2024-02-28T11:13:59;19.80;;;7.70;;
61356;SDS011;47227;46.752;23.576;2024-02-28T11:16:31;17.20;;;7.80;;
61356;SDS011;47227;46.752;23.576;2024-02-28T11:19:01;13.80;;;6.90;;
61356;SDS011;47227;46.752;23.576;2024-02-28T11:21:33;16.20;;;7.80;;
61356;SDS011;47227;46.752;23.576;2024-02-28T11:24:03;16.90;;;8.30;;
61356;SDS011;47227;46.752;23.576;2024-02-28T11:26:33;19.40;;;8.30;;
61356;SDS011;47227;46.752;23.576;2024-02-28T11:29:01;21.70;;;12.30;;
61356;SDS011;47227;46.752;23.576;2024-02-28T11:31:30;15.90;;;7.90;;
61356;SDS011;47227;46.752;23.576;2024-02-28T11:33:58;11.80;;;6.70;;
61356;SDS011;47227;46.752;23.576;2024-02-28T11:36:27;14.50;;;8.30;;
61356;SDS011;47227;46.752;23.576;2024-02-28T11:38:56;13.10;;;7.90;;
61356;SDS011;47227;46.752;23.576;2024-02-28T11:41:27;12.70;;;5.90;;
61356;SDS011;47227;46.752;23.576;2024-02-28T11:43:56;9.40;;;5.50;;
61356;SDS011;47227;46.752;23.576;2024-02-28T11:46:24;10.80;;;5.70;;
61356;SDS011;47227;46.752;23.576;2024-02-28T11:48:53;10.80;;;5.10;;
61356;SDS011;47227;46.752;23.576;2024-02-28T11:51:22;9.00;;;5.30;;
61356;SDS011;47227;46.752;23.576;2024-02-28T11:53:51;7.20;;;5.10;;
61356;SDS011;47227;46.752;23.576;2024-02-28T11:56:19;10.20;;;5.10;;
61356;SDS011;47227;46.752;23.576;2024-02-28T11:58:50;12.70;;;5.20;;
61356;SDS011;47227;46.752;23.576;2024-02-28T12:01:35;8.10;;;4.60;;
61356;SDS011;47227;46.752;23.576;2024-02-28T12:04:07;11.50;;;4.80;;
61356;SDS011;47227;46.752;23.576;2024-02-28T12:06:36;10.40;;;5.80;;
61356;SDS011;47227;46.752;23.576;2024-02-28T12:09:06;12.50;;;5.60;;
61356;SDS011;47227;46.752;23.576;2024-02-28T12:11:37;11.80;;;5.20;;
61356;SDS011;47227;46.752;23.576;2024-02-28T12:14:06;11.50;;;4.70;;
61356;SDS011;47227;46.752;23.576;2024-02-28T12:16:37;9.10;;;5.00;;
61356;SDS011;47227;46.752;23.576;2024-02-28T12:19:08;8.70;;;4.60;;
61356;SDS011;47227;46.752;23.576;2024-02-28T12:21:38;7.40;;;4.50;;
61356;SDS011;47227;46.752;23.576;2024-02-28T12:24:08;12.00;;;5.20;;
61356;SDS011;47227;46.752;23.576;2024-02-28T12:26:38;17.00;;;5.40;;
61356;SDS011;47227;46.752;23.576;2024-02-28T12:29:07;15.40;;;4.90;;
61356;SDS011;47227;46.752;23.576;2024-02-28T12:31:39;24.90;;;5.80;;
61356;SDS011;47227;46.752;23.576;2024-02-28T12:34:07;11.00;;;4.80;;
61356;SDS011;47227;46.752;23.576;2024-02-28T12:36:36;7.20;;;4.70;;
61356;SDS011;47227;46.752;23.576;2024-02-28T12:39:05;6.40;;;3.60;;
61356;SDS011;47227;46.752;23.576;2024-02-28T12:41:34;9.90;;;4.60;;
61356;SDS011;47227;46.752;23.576;2024-02-28T12:44:05;8.30;;;4.40;;
61356;SDS011;47227;46.752;23.576;2024-02-28T12:46:34;7.10;;;3.80;;
61356;SDS011;47227;46.752;23.576;2024-02-28T12:49:03;8.30;;;4.40;;
61356;SDS011;47227;46.752;23.576;2024-02-28T12:51:36;8.60;;;4.00;;
61356;SDS011;47227;46.752;23.576;2024-02-28T12:54:05;8.00;;;4.40;;
61356;SDS011;47227;46.752;23.576;2024-02-28T12:56:35;7.00;;;4.60;;
61356;SDS011;47227;46.752;23.576;2024-02-28T12:59:05;9.00;;;4.10;;
61356;SDS011;47227;46.752;23.576;2024-02-28T13:01:37;7.30;;;3.50;;
61356;SDS011;47227;46.752;23.576;2024-02-28T13:04:06;5.80;;;4.10;;
61356;SDS011;47227;46.752;23.576;2024-02-28T13:06:35;5.60;;;3.90;;
61356;SDS011;47227;46.752;23.576;2024-02-28T13:09:03;7.30;;;3.50;;
61356;SDS011;47227;46.752;23.576;2024-02-28T13:11:34;8.30;;;3.60;;
61356;SDS011;47227;46.752;23.576;2024-02-28T13:14:02;9.80;;;4.00;;
61356;SDS011;47227;46.752;23.576;2024-02-28T13:16:31;15.50;;;2.80;;
61356;SDS011;47227;46.752;23.576;2024-02-28T13:18:59;7.10;;;2.30;;
61356;SDS011;47227;46.752;23.576;2024-02-28T13:21:28;5.30;;;2.20;;
61356;SDS011;47227;46.752;23.576;2024-02-28T13:23:57;5.40;;;2.80;;
61356;SDS011;47227;46.752;23.576;2024-02-28T13:26:25;4.50;;;2.20;;
61356;SDS011;47227;46.752;23.576;2024-02-28T13:28:53;6.50;;;2.60;;
61356;SDS011;47227;46.752;23.576;2024-02-28T13:31:22;8.50;;;3.10;;
61356;SDS011;47227;46.752;23.576;2024-02-28T13:33:51;8.30;;;2.20;;
61356;SDS011;47227;46.752;23.576;2024-02-28T13:36:19;4.90;;;2.50;;
61356;SDS011;47227;46.752;23.576;2024-02-28T13:38:47;6.20;;;3.20;;
61356;SDS011;47227;46.752;23.576;2024-02-28T13:41:16;5.90;;;2.70;;
61356;SDS011;47227;46.752;23.576;2024-02-28T13:43:44;2.60;;;1.90;;
61356;SDS011;47227;46.752;23.576;2024-02-28T13:46:13;4.20;;;2.10;;
61356;SDS011;47227;46.752;23.576;2024-02-28T13:48:43;4.00;;;2.20;;
61356;SDS011;47227;46.752;23.576;2024-02-28T13:51:11;4.00;;;2.00;;
61356;SDS011;47227;46.752;23.576;2024-02-28T13:53:40;8.10;;;4.20;;
61356;SDS011;47227;46.752;23.576;2024-02-28T13:56:08;8.40;;;3.30;;
61356;SDS011;47227;46.752;23.576;2024-02-28T13:58:37;6.50;;;2.80;;
61356;SDS011;47227;46.752;23.576;2024-02-28T14:01:19;10.60;;;3.60;;
61356;SDS011;47227;46.752;23.576;2024-02-28T14:03:49;5.50;;;3.10;;
61356;SDS011;47227;46.752;23.576;2024-02-28T14:06:17;11.00;;;2.60;;
61356;SDS011;47227;46.752;23.576;2024-02-28T14:08:46;6.70;;;2.70;;
61356;SDS011;47227;46.752;23.576;2024-02-28T14:11:14;8.40;;;2.50;;
61356;SDS011;47227;46.752;23.576;2024-02-28T14:13:45;5.50;;;3.00;;
61356;SDS011;47227;46.752;23.576;2024-02-28T14:16:13;6.00;;;2.40;;
61356;SDS011;47227;46.752;23.576;2024-02-28T14:18:42;8.50;;;2.20;;
61356;SDS011;47227;46.752;23.576;2024-02-28T14:21:11;5.30;;;2.50;;
61356;SDS011;47227;46.752;23.576;2024-02-28T14:23:39;9.40;;;3.90;;
61356;SDS011;47227;46.752;23.576;2024-02-28T14:26:09;10.00;;;3.80;;